createdAt,value
2023-01-15T00:01:40.732Z,99246.53
2023-01-15T00:04:07.852Z,99247.53
2023-01-15T00:06:39.698Z,99256.34
2023-01-15T00:09:08.264Z,99239.88
2023-01-15T00:11:34.904Z,99236.38
2023-01-15T00:14:01.461Z,99244.13
2023-01-15T00:16:28.298Z,99245.13
2023-01-15T00:18:57.770Z,99245.94
2023-01-15T00:21:26.272Z,99261.34
2023-01-15T00:24:11.838Z,99271.88
2023-01-15T00:26:57.388Z,99280.72
2023-01-15T00:29:24.824Z,99270.22
2023-01-15T00:31:55.319Z,99263.41
2023-01-15T00:34:21.900Z,99265.09
2023-01-15T00:36:48.462Z,99252.75
2023-01-15T00:39:14.945Z,99271.88
2023-01-15T00:41:41.429Z,99271.91
2023-01-15T00:44:07.936Z,99269.25
2023-01-15T00:46:34.466Z,99264.06
2023-01-15T00:49:01.556Z,99261.47
2023-01-15T00:51:28.053Z,99238.88
2023-01-15T00:53:54.459Z,99246.16
2023-01-15T00:56:20.992Z,99240.06
2023-01-15T00:58:47.938Z,99223.44
2023-01-15T01:01:15.273Z,99225.94
2023-01-15T01:03:41.983Z,99204.41
2023-01-15T01:06:10.191Z,99201.72
2023-01-15T01:08:36.609Z,99204.22
2023-01-15T01:11:08.597Z,99231.41
2023-01-15T01:13:35.263Z,99232.56
2023-01-15T01:16:01.998Z,99230.13
2023-01-15T01:18:28.484Z,99212.50
2023-01-15T01:20:55.020Z,99208.94
2023-01-15T01:23:23.854Z,99216.78
2023-01-15T01:25:50.669Z,99234.94
2023-01-15T01:28:17.150Z,99254.38
2023-01-15T01:30:43.535Z,99249.22
2023-01-15T01:33:10.012Z,99243.91
2023-01-15T01:35:36.455Z,99252.56
2023-01-15T01:38:02.948Z,99260.38
2023-01-15T01:40:29.513Z,99257.22
2023-01-15T01:42:55.921Z,99245.81
2023-01-15T01:45:26.791Z,99247.66
2023-01-15T01:48:01.875Z,99248.53
2023-01-15T01:50:29.669Z,99246.78
2023-01-15T01:53:07.068Z,99257.16
2023-01-15T01:55:36.068Z,99263.28
2023-01-15T01:58:05.224Z,99272.88
2023-01-15T02:00:33.484Z,99253.91
2023-01-15T02:03:02.481Z,99238.25
2023-01-15T02:05:35.818Z,99265.16
2023-01-15T02:08:02.272Z,99274.72
2023-01-15T02:10:29.131Z,99274.75
2023-01-15T02:13:03.390Z,99275.63
2023-01-15T02:15:38.506Z,99256.59
2023-01-15T02:18:19.183Z,99250.50
2023-01-15T02:21:13.271Z,99250.50
2023-01-15T02:24:00.073Z,99253.22
2023-01-15T02:27:07.297Z,99237.59
2023-01-15T02:29:51.913Z,99231.56
2023-01-15T02:32:28.520Z,99224.56
2023-01-15T02:35:00.671Z,99228.88
2023-01-15T02:37:30.159Z,99217.63
2023-01-15T02:39:59.722Z,99219.41
2023-01-15T02:42:28.179Z,99230.75
2023-01-15T02:44:57.869Z,99237.69
2023-01-15T02:47:29.238Z,99234.19
2023-01-15T02:49:59.653Z,99236.81
2023-01-15T02:52:31.882Z,99229.91
2023-01-15T02:55:06.023Z,99222.16
2023-01-15T02:57:37.296Z,99208.22
2023-01-15T03:00:09.154Z,99214.31
2023-01-15T03:02:42.119Z,99221.22
2023-01-15T03:05:15.336Z,99223.88
2023-01-15T03:07:51.409Z,99221.31
2023-01-15T03:10:18.510Z,99217.84
2023-01-15T03:13:02.716Z,99220.59
2023-01-15T03:15:53.795Z,99215.47
2023-01-15T03:18:22.413Z,99193.00
2023-01-15T03:20:56.273Z,99196.41
2023-01-15T03:23:27.217Z,99208.47
2023-01-15T03:25:53.698Z,99205.00
2023-01-15T03:28:25.615Z,99220.69
2023-01-15T03:30:52.257Z,99217.34
2023-01-15T03:33:19.399Z,99204.31
2023-01-15T03:35:58.636Z,99193.00
2023-01-15T03:38:32.436Z,99192.97
2023-01-15T03:41:03.479Z,99191.31
2023-01-15T03:43:46.517Z,99190.38
2023-01-15T03:46:23.304Z,99184.34
2023-01-15T03:49:25.586Z,99176.47
2023-01-15T03:52:02.523Z,99192.06
2023-01-15T03:55:06.877Z,99180.81
2023-01-15T03:57:43.555Z,99191.31
2023-01-15T04:00:24.777Z,99193.06
2023-01-15T04:02:53.704Z,99201.72
2023-01-15T04:05:21.193Z,99198.16
2023-01-15T04:07:49.184Z,99196.41
2023-01-15T04:10:16.149Z,99194.66
2023-01-15T04:12:42.602Z,99193.75
2023-01-15T04:15:11.621Z,99196.31
2023-01-15T04:17:38.474Z,99192.03
2023-01-15T04:20:05.934Z,99181.59
2023-01-15T04:22:32.500Z,99191.97
2023-01-15T04:24:59.005Z,99195.47
2023-01-15T04:27:27.205Z,99202.41
2023-01-15T04:29:53.707Z,99200.59
2023-01-15T04:32:20.187Z,99203.25
2023-01-15T04:34:46.681Z,99215.41
2023-01-15T04:37:13.238Z,99212.84
2023-01-15T04:39:39.630Z,99204.13
2023-01-15T04:42:24.763Z,99205.00
2023-01-15T04:44:51.215Z,99211.06
2023-01-15T04:47:17.621Z,99205.84
2023-01-15T04:49:44.060Z,99201.63
2023-01-15T04:52:10.628Z,99191.22
2023-01-15T04:54:37.055Z,99192.13
2023-01-15T04:57:03.572Z,99191.22
2023-01-15T04:59:30.042Z,99191.25
2023-01-15T05:02:06.365Z,99199.81
2023-01-15T05:04:33.932Z,99198.06
2023-01-15T05:07:02.463Z,99199.00
2023-01-15T05:09:28.896Z,99198.13
2023-01-15T05:11:55.381Z,99195.59
2023-01-15T05:14:21.909Z,99201.63
2023-01-15T05:16:48.439Z,99209.44
2023-01-15T05:19:14.869Z,99209.44
2023-01-15T05:21:42.956Z,99218.22
2023-01-15T05:24:14.720Z,99218.16
2023-01-15T05:26:42.100Z,99217.31
2023-01-15T05:29:10.076Z,99224.19
2023-01-15T05:31:36.583Z,99216.41
2023-01-15T05:34:03.064Z,99231.94
2023-01-15T05:36:31.325Z,99213.81
2023-01-15T05:39:01.651Z,99220.78
2023-01-15T05:41:48.372Z,99217.34
2023-01-15T05:44:17.100Z,99206.09
2023-01-15T05:46:44.961Z,99197.41
2023-01-15T05:49:17.359Z,99209.53
2023-01-15T05:51:44.691Z,99206.84
2023-01-15T05:54:14.465Z,99209.56
2023-01-15T05:56:41.127Z,99213.00
2023-01-15T05:59:08.416Z,99211.34
2023-01-15T06:01:35.864Z,99206.16
2023-01-15T06:04:04.360Z,99215.75
2023-01-15T06:06:31.057Z,99214.03
2023-01-15T06:08:57.911Z,99228.66
2023-01-15T06:11:24.718Z,99233.91
2023-01-15T06:13:51.459Z,99219.09
2023-01-15T06:16:18.861Z,99227.69
2023-01-15T06:18:45.574Z,99235.53
2023-01-15T06:21:13.896Z,99239.88
2023-01-15T06:23:41.058Z,99242.50
2023-01-15T06:26:12.122Z,99236.44
2023-01-15T06:28:38.682Z,99242.44
2023-01-15T06:31:10.290Z,99234.50
2023-01-15T06:33:37.176Z,99226.84
2023-01-15T06:36:09.752Z,99245.94
2023-01-15T06:38:36.180Z,99248.53
2023-01-15T06:41:04.348Z,99243.44
2023-01-15T06:43:49.398Z,99245.94
2023-01-15T06:46:35.700Z,99249.53
2023-01-15T06:49:02.171Z,99255.66
2023-01-15T06:51:30.972Z,99248.78
2023-01-15T06:53:57.687Z,99256.56
2023-01-15T06:56:24.090Z,99250.44
2023-01-15T06:58:50.594Z,99245.28
2023-01-15T07:01:17.229Z,99252.22
2023-01-15T07:03:43.922Z,99247.16
2023-01-15T07:06:12.628Z,99253.16
2023-01-15T07:08:39.674Z,99255.72
2023-01-15T07:11:09.017Z,99248.88
2023-01-15T07:13:36.742Z,99253.97
2023-01-15T07:16:04.668Z,99247.13
2023-01-15T07:18:32.667Z,99245.47
2023-01-15T07:20:59.468Z,99248.91
2023-01-15T07:23:26.920Z,99253.25
2023-01-15T07:25:53.989Z,99251.47
2023-01-15T07:28:24.588Z,99258.31
2023-01-15T07:30:51.074Z,99261.84
2023-01-15T07:33:17.592Z,99267.94
2023-01-15T07:35:44.035Z,99274.91
2023-01-15T07:38:10.475Z,99275.69
2023-01-15T07:40:38.272Z,99274.81
2023-01-15T07:43:23.599Z,99285.25
2023-01-15T07:46:08.347Z,99283.53
2023-01-15T07:48:53.271Z,99288.75
2023-01-15T07:51:22.750Z,99287.00
2023-01-15T07:53:49.158Z,99309.47
2023-01-15T07:56:15.752Z,99300.06
2023-01-15T07:58:42.251Z,99298.34
2023-01-15T08:01:08.882Z,99303.47
2023-01-15T08:03:35.487Z,99305.25
2023-01-15T08:06:02.221Z,99312.13
2023-01-15T08:08:28.683Z,99315.53
2023-01-15T08:11:13.870Z,99311.22
2023-01-15T08:13:58.762Z,99312.13
2023-01-15T08:16:25.453Z,99301.72
2023-01-15T08:18:52.019Z,99318.13
2023-01-15T08:21:19.608Z,99319.06
2023-01-15T08:23:47.554Z,99334.72
2023-01-15T08:26:14.030Z,99344.97
2023-01-15T08:28:40.574Z,99333.00
2023-01-15T08:31:08.545Z,99357.25
2023-01-15T08:33:35.816Z,99354.78
2023-01-15T08:36:02.375Z,99358.31
2023-01-15T08:38:29.083Z,99362.66
2023-01-15T08:40:58.568Z,99353.09
2023-01-15T08:43:29.052Z,99356.66
2023-01-15T08:46:00.429Z,99364.56
2023-01-15T08:48:29.549Z,99365.47
2023-01-15T08:50:56.380Z,99365.53
2023-01-15T08:53:24.253Z,99361.28
2023-01-15T08:55:51.233Z,99363.03
2023-01-15T08:58:17.839Z,99358.75
2023-01-15T09:00:44.470Z,99351.91
2023-01-15T09:03:11.104Z,99371.94
2023-01-15T09:05:38.286Z,99369.38
2023-01-15T09:08:06.406Z,99382.44
2023-01-15T09:10:34.050Z,99378.19
2023-01-15T09:13:01.547Z,99386.88
2023-01-15T09:15:29.142Z,99379.16
2023-01-15T09:17:56.481Z,99376.66
2023-01-15T09:20:23.111Z,99362.00
2023-01-15T09:22:49.953Z,99366.34
2023-01-15T09:25:18.538Z,99380.22
2023-01-15T09:27:46.176Z,99364.69
2023-01-15T09:30:22.465Z,99370.78
2023-01-15T09:32:49.153Z,99370.81
2023-01-15T09:35:15.648Z,99370.75
2023-01-15T09:37:42.060Z,99368.03
2023-01-15T09:40:40.451Z,99371.34
2023-01-15T09:43:20.802Z,99368.63
2023-01-15T09:46:02.051Z,99369.50
2023-01-15T09:49:04.113Z,99359.00
2023-01-15T09:51:33.511Z,99358.94
2023-01-15T09:54:05.448Z,99359.84
2023-01-15T09:56:37.241Z,99353.56
2023-01-15T09:59:16.478Z,99356.84
2023-01-15T10:01:43.469Z,99368.84
2023-01-15T10:04:44.367Z,99362.81
2023-01-15T10:07:33.232Z,99339.38
2023-01-15T10:10:07.344Z,99352.25
2023-01-15T10:12:36.418Z,99360.00
2023-01-15T10:15:24.513Z,99364.19
2023-01-15T10:17:57.281Z,99357.16
2023-01-15T10:20:23.697Z,99373.50
2023-01-15T10:23:05.301Z,99386.28
2023-01-15T10:25:42.992Z,99385.13
2023-01-15T10:28:28.757Z,99404.03
2023-01-15T10:30:56.801Z,99410.91
2023-01-15T10:33:40.497Z,99391.84
2023-01-15T10:36:18.974Z,99403.09
2023-01-15T10:39:16.086Z,99412.66
2023-01-15T10:41:51.660Z,99403.09
2023-01-15T10:44:30.368Z,99395.97
2023-01-15T10:47:01.652Z,99405.41
2023-01-15T10:49:29.706Z,99416.69
2023-01-15T10:52:31.467Z,99388.03
2023-01-15T10:55:15.230Z,99399.28
2023-01-15T10:57:45.121Z,99395.00
2023-01-15T11:00:12.597Z,99397.50
2023-01-15T11:02:49.845Z,99385.31
2023-01-15T11:05:21.527Z,99393.16
2023-01-15T11:08:16.525Z,99393.88
2023-01-15T11:10:40.663Z,99405.78
2023-01-15T11:13:55.610Z,99417.94
2023-01-15T11:16:45.077Z,99392.13
2023-01-15T11:19:42.581Z,99415.63
2023-01-15T11:22:20.126Z,99424.28
2023-01-15T11:24:49.602Z,99432.94
2023-01-15T11:27:19.683Z,99407.91
2023-01-15T11:29:50.835Z,99414.91
2023-01-15T11:32:30.499Z,99408.75
2023-01-15T11:35:18.292Z,99400.09
2023-01-15T11:37:44.922Z,99418.06
2023-01-15T11:40:19.203Z,99391.16
2023-01-15T11:43:05.698Z,99409.53
2023-01-15T11:45:51.105Z,99389.66
2023-01-15T11:48:39.057Z,99398.44
2023-01-15T11:51:13.821Z,99390.78
2023-01-15T11:53:46.293Z,99397.69
2023-01-15T11:56:25.912Z,99370.94
2023-01-15T11:58:58.405Z,99391.72
2023-01-15T12:01:31.994Z,99401.22
2023-01-15T12:04:01.038Z,99390.78
2023-01-15T12:06:29.838Z,99415.81
2023-01-15T12:09:17.355Z,99395.84
2023-01-15T12:12:01.054Z,99448.72
2023-01-15T12:14:52.009Z,99401.06
2023-01-15T12:17:46.583Z,99395.94
2023-01-15T12:20:22.116Z,99393.38
2023-01-15T12:23:09.209Z,99397.72
2023-01-15T12:26:05.444Z,99407.41
2023-01-15T12:28:36.432Z,99398.81
2023-01-15T12:31:21.574Z,99402.22
2023-01-15T12:34:03.905Z,99392.53
2023-01-15T12:37:00.973Z,99382.16
2023-01-15T12:39:32.074Z,99383.75
2023-01-15T12:42:21.719Z,99376.84
2023-01-15T12:45:06.040Z,99370.63
2023-01-15T12:47:57.163Z,99377.41
2023-01-15T12:50:45.453Z,99364.03
2023-01-15T12:53:17.528Z,99370.06
2023-01-15T12:55:52.042Z,99386.78
2023-01-15T12:58:40.536Z,99373.06
2023-01-15T13:01:19.156Z,99367.81
2023-01-15T13:04:01.829Z,99371.25
2023-01-15T13:06:29.222Z,99381.63
2023-01-15T13:09:25.666Z,99360.66
2023-01-15T13:11:52.396Z,99368.38
2023-01-15T13:14:21.661Z,99379.72
2023-01-15T13:17:02.794Z,99396.28
2023-01-15T13:19:46.373Z,99373.91
2023-01-15T13:22:22.266Z,99368.75
2023-01-15T13:25:07.171Z,99373.94
2023-01-15T13:27:54.946Z,99380.91
2023-01-15T13:30:39.214Z,99370.50
2023-01-15T13:33:31.925Z,99367.19
2023-01-15T13:36:12.719Z,99375.75
2023-01-15T13:38:47.095Z,99380.97
2023-01-15T13:41:43.222Z,99385.22
2023-01-15T13:44:21.730Z,99398.22
2023-01-15T13:47:00.229Z,99383.50
2023-01-15T13:49:34.360Z,99401.00
2023-01-15T13:52:04.461Z,99395.84
2023-01-15T13:54:36.037Z,99397.50
2023-01-15T13:57:24.039Z,99403.66
2023-01-15T13:59:50.833Z,99407.94
2023-01-15T14:02:25.223Z,99426.06
2023-01-15T14:04:51.885Z,99415.63
2023-01-15T14:07:32.128Z,99426.16
2023-01-15T14:10:17.877Z,99427.00
2023-01-15T14:13:09.338Z,99436.38
2023-01-15T14:15:57.649Z,99428.72
2023-01-15T14:18:45.782Z,99428.53
2023-01-15T14:21:27.463Z,99426.91
2023-01-15T14:24:31.913Z,99421.94
2023-01-15T14:27:11.495Z,99444.53
2023-01-15T14:29:46.408Z,99427.00
2023-01-15T14:32:36.049Z,99433.06
2023-01-15T14:35:03.152Z,99446.97
2023-01-15T14:37:48.355Z,99441.78
2023-01-15T14:41:12.943Z,99448.81
2023-01-15T14:43:47.019Z,99450.44
2023-01-15T14:46:28.930Z,99436.72
2023-01-15T14:48:55.425Z,99459.06
2023-01-15T14:51:34.006Z,99445.16
2023-01-15T14:54:11.029Z,99455.66
2023-01-15T14:56:44.583Z,99463.63
2023-01-15T14:59:27.933Z,99459.28
2023-01-15T15:02:00.559Z,99459.16
2023-01-15T15:04:49.056Z,99461.00
2023-01-15T15:07:18.612Z,99445.47
2023-01-15T15:10:06.951Z,99470.53
2023-01-15T15:12:45.577Z,99467.94
2023-01-15T15:15:27.464Z,99449.53
2023-01-15T15:17:59.823Z,99455.56
2023-01-15T15:20:45.545Z,99454.81
2023-01-15T15:23:39.949Z,99467.03
2023-01-15T15:26:19.527Z,99466.19
2023-01-15T15:29:05.049Z,99457.50
2023-01-15T15:31:37.211Z,99466.91
2023-01-15T15:34:06.765Z,99453.09
2023-01-15T15:36:39.041Z,99453.06
2023-01-15T15:39:18.988Z,99469.53
2023-01-15T15:42:08.021Z,99466.06
2023-01-15T15:45:04.045Z,99464.47
2023-01-15T15:47:57.290Z,99460.34
2023-01-15T15:50:35.029Z,99469.84
2023-01-15T15:53:04.632Z,99468.00
2023-01-15T15:55:43.836Z,99459.59
2023-01-15T15:58:36.946Z,99462.19
2023-01-15T16:01:03.732Z,99463.25
2023-01-15T16:03:33.249Z,99464.91
2023-01-15T16:06:05.831Z,99457.19
2023-01-15T16:08:36.047Z,99470.16
2023-01-15T16:11:07.062Z,99467.56
2023-01-15T16:13:40.163Z,99472.75
2023-01-15T16:16:08.348Z,99462.41
2023-01-15T16:18:41.133Z,99468.34
2023-01-15T16:21:09.130Z,99470.06
2023-01-15T16:23:35.720Z,99468.28
2023-01-15T16:26:05.342Z,99474.34
2023-01-15T16:28:47.567Z,99481.31
2023-01-15T16:31:15.424Z,99475.34
2023-01-15T16:33:42.039Z,99468.59
2023-01-15T16:36:08.902Z,99464.13
2023-01-15T16:38:42.502Z,99471.13
2023-01-15T16:41:20.018Z,99473.72
2023-01-15T16:43:59.704Z,99466.97
2023-01-15T16:46:39.251Z,99474.78
2023-01-15T16:49:24.101Z,99470.44
2023-01-15T16:51:51.429Z,99466.88
2023-01-15T16:54:30.180Z,99467.72
2023-01-15T16:57:00.770Z,99473.84
2023-01-15T16:59:27.236Z,99454.84
2023-01-15T17:02:11.819Z,99465.97
2023-01-15T17:04:42.212Z,99466.81
2023-01-15T17:07:15.930Z,99472.97
2023-01-15T17:09:50.275Z,99473.84
2023-01-15T17:12:29.194Z,99474.66
2023-01-15T17:15:19.951Z,99483.31
2023-01-15T17:17:51.700Z,99474.47
2023-01-15T17:20:19.702Z,99484.84
2023-01-15T17:22:49.392Z,99472.59
2023-01-15T17:25:32.476Z,99489.94
2023-01-15T17:28:00.805Z,99481.25
2023-01-15T17:30:32.101Z,99484.00
2023-01-15T17:33:02.914Z,99481.53
2023-01-15T17:35:37.822Z,99484.00
2023-01-15T17:38:06.737Z,99484.84
2023-01-15T17:40:33.236Z,99484.22
2023-01-15T17:43:00.227Z,99477.25
2023-01-15T17:45:29.396Z,99488.59
2023-01-15T17:47:55.948Z,99480.63
2023-01-15T17:50:22.726Z,99478.16
2023-01-15T17:52:49.549Z,99477.22
2023-01-15T17:55:38.748Z,99472.91
2023-01-15T17:58:24.061Z,99473.97
2023-01-15T18:01:11.899Z,99476.69
2023-01-15T18:04:03.460Z,99473.31
2023-01-15T18:06:30.077Z,99488.91
2023-01-15T18:08:59.810Z,99481.19
2023-01-15T18:11:26.229Z,99478.66
2023-01-15T18:13:52.838Z,99479.59
2023-01-15T18:16:19.358Z,99480.56
2023-01-15T18:18:45.904Z,99473.69
2023-01-15T18:21:12.337Z,99481.53
2023-01-15T18:23:39.674Z,99488.47
2023-01-15T18:26:07.174Z,99483.22
2023-01-15T18:28:35.506Z,99477.25
2023-01-15T18:31:03.079Z,99492.88
2023-01-15T18:33:30.147Z,99479.03
2023-01-15T18:36:08.851Z,99479.00
2023-01-15T18:38:40.911Z,99484.25
2023-01-15T18:41:12.251Z,99476.44
2023-01-15T18:43:57.249Z,99468.63
2023-01-15T18:46:42.748Z,99468.63
2023-01-15T18:49:09.226Z,99472.84
2023-01-15T18:51:35.677Z,99469.47
2023-01-15T18:54:02.321Z,99466.03
2023-01-15T18:56:42.734Z,99461.75
2023-01-15T18:59:11.768Z,99459.97
2023-01-15T19:01:39.759Z,99466.88
2023-01-15T19:04:08.668Z,99463.44
2023-01-15T19:06:35.752Z,99453.03
2023-01-15T19:09:02.495Z,99453.06
2023-01-15T19:11:29.560Z,99449.63
2023-01-15T19:14:14.988Z,99452.22
2023-01-15T19:17:00.366Z,99455.63
2023-01-15T19:19:27.375Z,99447.03
2023-01-15T19:22:23.700Z,99446.19
2023-01-15T19:24:50.143Z,99441.84
2023-01-15T19:27:16.717Z,99438.34
2023-01-15T19:29:43.199Z,99440.94
2023-01-15T19:32:09.984Z,99436.59
2023-01-15T19:34:36.609Z,99433.13
2023-01-15T19:37:03.178Z,99438.34
2023-01-15T19:39:30.246Z,99422.72
2023-01-15T19:42:17.713Z,99423.63
2023-01-15T19:45:03.896Z,99422.63
2023-01-15T19:47:54.688Z,99418.25
2023-01-15T19:50:26.540Z,99409.56
2023-01-15T19:52:55.085Z,99394.91
2023-01-15T19:55:23.816Z,99394.91
2023-01-15T19:58:00.990Z,99401.81
2023-01-15T20:00:28.545Z,99380.16
2023-01-15T20:02:56.300Z,99383.59
2023-01-15T20:05:24.429Z,99387.03
2023-01-15T20:07:53.731Z,99387.91
2023-01-15T20:10:23.330Z,99382.75
2023-01-15T20:13:09.967Z,99375.00
2023-01-15T20:15:42.433Z,99376.72
2023-01-15T20:18:08.904Z,99370.66
2023-01-15T20:20:35.444Z,99365.50
2023-01-15T20:23:01.987Z,99358.63
2023-01-15T20:25:30.049Z,99358.56
2023-01-15T20:27:58.639Z,99348.16
2023-01-15T20:30:26.402Z,99356.00
2023-01-15T20:32:55.266Z,99343.88
2023-01-15T20:35:25.660Z,99350.84
2023-01-15T20:37:52.602Z,99343.09
2023-01-15T20:40:29.945Z,99342.16
2023-01-15T20:43:14.946Z,99336.06
2023-01-15T20:45:41.517Z,99335.28
2023-01-15T20:48:11.305Z,99324.97
2023-01-15T20:51:01.690Z,99327.59
2023-01-15T20:53:33.737Z,99318.97
2023-01-15T20:56:01.754Z,99314.69
2023-01-15T20:58:28.390Z,99306.91
2023-01-15T21:01:02.469Z,99306.91
2023-01-15T21:03:42.065Z,99294.00
2023-01-15T21:06:09.316Z,99295.75
2023-01-15T21:08:35.856Z,99291.38
2023-01-15T21:11:02.823Z,99282.72
2023-01-15T21:13:30.989Z,99289.66
2023-01-15T21:16:02.902Z,99283.53
2023-01-15T21:18:30.477Z,99277.38
2023-01-15T21:20:56.971Z,99266.97
2023-01-15T21:23:24.352Z,99258.28
2023-01-15T21:25:50.929Z,99270.38
2023-01-15T21:28:17.566Z,99268.63
2023-01-15T21:30:44.827Z,99267.94
2023-01-15T21:33:11.591Z,99251.66
2023-01-15T21:35:40.317Z,99244.88
2023-01-15T21:38:08.187Z,99249.34
2023-01-15T21:40:37.549Z,99248.63
2023-01-15T21:43:23.638Z,99250.50
2023-01-15T21:45:51.062Z,99249.69
2023-01-15T21:48:18.365Z,99244.53
2023-01-15T21:50:45.127Z,99242.88
2023-01-15T21:53:11.666Z,99235.19
2023-01-15T21:55:38.121Z,99219.66
2023-01-15T21:58:04.665Z,99216.25
2023-01-15T22:00:31.142Z,99212.84
2023-01-15T22:02:58.468Z,99207.69
2023-01-15T22:05:25.106Z,99201.63
2023-01-15T22:07:51.582Z,99198.16
2023-01-15T22:10:18.131Z,99199.91
2023-01-15T22:12:44.686Z,99199.03
2023-01-15T22:15:12.011Z,99195.59
2023-01-15T22:17:38.540Z,99198.19
2023-01-15T22:20:06.285Z,99193.06
2023-01-15T22:22:35.810Z,99184.38
2023-01-15T22:25:02.645Z,99186.97
2023-01-15T22:27:30.388Z,99176.63
2023-01-15T22:29:56.969Z,99175.81
2023-01-15T22:32:23.501Z,99171.47
2023-01-15T22:34:49.961Z,99160.25
2023-01-15T22:37:16.463Z,99161.09
2023-01-15T22:39:42.977Z,99160.25
2023-01-15T22:42:24.567Z,99154.13
2023-01-15T22:44:51.632Z,99141.13
2023-01-15T22:47:19.359Z,99144.56
2023-01-15T22:49:46.046Z,99138.53
2023-01-15T22:52:12.494Z,99133.34
2023-01-15T22:54:38.932Z,99131.63
2023-01-15T22:57:05.392Z,99128.13
2023-01-15T22:59:31.806Z,99125.50
2023-01-15T23:01:58.270Z,99124.66
2023-01-15T23:04:25.349Z,99112.50
2023-01-15T23:06:52.826Z,99100.41
2023-01-15T23:09:23.630Z,99097.78
2023-01-15T23:11:51.520Z,99089.94
2023-01-15T23:14:19.536Z,99076.94
2023-01-15T23:16:46.245Z,99074.28
2023-01-15T23:19:14.206Z,99081.16
2023-01-15T23:21:41.396Z,99080.28
2023-01-15T23:24:08.672Z,99068.97
2023-01-15T23:26:35.664Z,99058.63
2023-01-15T23:29:02.143Z,99071.59
2023-01-15T23:31:29.519Z,99066.38
2023-01-15T23:33:56.283Z,99059.47
2023-01-15T23:36:23.188Z,99056.88
2023-01-15T23:38:49.620Z,99055.19
2023-01-15T23:41:18.776Z,99050.88
2023-01-15T23:44:03.886Z,99051.59
2023-01-15T23:46:35.295Z,99053.25
2023-01-15T23:49:04.725Z,99042.72
2023-01-15T23:51:32.028Z,99043.56
2023-01-15T23:53:59.662Z,99038.38
2023-01-15T23:56:26.912Z,99032.34
2023-01-15T23:58:53.766Z,99028.06
